首页
METAR-TAF:

METAR-TAF

机场 :

大马士革, 叙利亚

大马士革国际机场

纬度: 33-25N, 经度: 036-31E, 海拔: 608米

当前天气观测

该预报发布于32分钟前的14:00 UTC
风速18节,风向南转西南
温度 14°C
湿度 41%
气压 1010 hPa
能见度10公里或以上
1500米以下无云,无积雨云

METAR: OSDI 221400Z 20018KT CAVOK 14/01 Q1010

时间: 16:32 (14:32 UTC)

预报

预报有效从22日的 12点(UTC)到 23日的 18点(UTC)
风速15节,风向西南,有时为25节阵风
能见度10公里或以上
少量云层高于3000英尺
短暂存在
从 23日的 00点(UTC)到 23日的 18点(UTC)
风速25节,风向西南,有时为40节阵风
能見度: 6000
少量云层高于2500英尺
散云层高于3000英尺
多云层高于9000英尺
阵雨

TAF: OSDI 2212/2318 22015G25KT 9999 FEW030 TEMPO 2300/2318 22025G40KT 6000 SHRA FEW025 CB SCT030 BKN090

超过4000个机场的气象观测和天气预报(METAR&TAF报告)。

可查询的气象台以黄色和红色小点在地图上表示。

将鼠标移到小点上方,可查看气象台名称。

然后点击查看天气观测和预报。

如需切换地图:点击带黑十字的绿色按钮放大地图;点击带横线的绿色按钮缩小地图;或者点击绿色箭头查看邻近地区的地图。


METAR-TAF: